Time;durP1;ratioP1;P1;durP2;ratioP2;P2;SDS_P1;SDS_P2;PMS_P1;PMS_P2;Temp;Humidity;BMP_temperature;BMP_pressure;BME280_temperature;BME280_humidity;BME280_pressure;Samples;Min_cycle;Max_cycle;Signal;HPM_P1;HPM_P2
2022/02/06 00:00:08;;;;;;;19.10;10.20;;;;;;;2.51;64.53;100267.10;110941;1250;21923;-76
2022/02/06 00:03:01;;;;;;;11.90;8.20;;;;;;;2.51;64.51;100259.23;110919;1251;22036;-75
2022/02/06 00:05:34;;;;;;;15.30;8.10;;;;;;;2.53;64.49;100258.06;110904;1250;22022;-75
2022/02/06 00:08:11;;;;;;;16.50;9.20;;;;;;;2.54;64.43;100259.64;110941;1251;22029;-75
2022/02/06 00:10:46;;;;;;;15.10;9.20;;;;;;;2.56;64.36;100257.12;110961;1251;21984;-76
2022/02/06 00:13:18;;;;;;;13.60;9.20;;;;;;;2.60;64.27;100261.54;110739;1251;22746;-76
2022/02/06 00:15:50;;;;;;;19.60;10.20;;;;;;;2.63;64.18;100262.13;110986;1250;23047;-75
2022/02/06 00:18:21;;;;;;;13.80;8.00;;;;;;;2.68;64.08;100260.52;110899;1251;21956;-75
2022/02/06 00:20:57;;;;;;;14.90;8.00;;;;;;;2.72;64.01;100253.94;110893;1250;23027;-75
2022/02/06 00:23:29;;;;;;;17.80;8.70;;;;;;;2.74;63.85;100248.74;110920;1250;22025;-76
2022/02/06 00:26:07;;;;;;;15.70;8.50;;;;;;;2.75;63.77;100244.14;111055;1250;21954;-76
2022/02/06 00:28:44;;;;;;;17.20;8.60;;;;;;;2.76;63.65;100242.52;110024;1258;23599;-76
2022/02/06 00:31:21;;;;;;;13.40;7.70;;;;;;;2.76;63.65;100234.84;110147;1257;21991;-75
2022/02/06 00:39:41;;;;;;;15.10;8.00;;;;;;;2.82;63.51;100224.97;109339;1262;21982;-76
2022/02/06 00:42:11;;;;;;;18.50;8.80;;;;;;;2.87;63.48;100222.70;109732;1260;23697;-75
2022/02/06 00:44:41;;;;;;;15.30;7.10;;;;;;;2.92;63.40;100222.62;109770;1260;21986;-77
2022/02/06 00:47:12;;;;;;;;;;;;;;;2.97;63.26;100224.18;110199;1257;24438;-76
2022/02/06 00:49:46;;;;;;;13.30;8.30;;;;;;;2.95;63.27;100219.23;110477;1254;22026;-75
2022/02/06 00:52:34;;;;;;;14.50;8.10;;;;;;;2.97;63.21;100218.39;110420;1256;22992;-76
2022/02/06 00:55:05;;;;;;;17.80;7.40;;;;;;;3.00;63.14;100217.45;110440;1253;23649;-76
2022/02/06 00:57:39;;;;;;;12.10;8.20;;;;;;;3.01;63.10;100213.54;110145;1257;21960;-75
2022/02/06 01:00:14;;;;;;;12.10;7.30;;;;;;;3.02;63.00;100210.53;110510;1254;21963;-75
2022/02/06 01:02:44;;;;;;;11.10;6.20;;;;;;;3.01;62.83;100207.08;110366;1256;21973;-76
2022/02/06 01:05:16;;;;;;;12.40;7.60;;;;;;;3.01;62.74;100199.64;110422;1254;22442;-76
2022/02/06 01:07:47;;;;;;;9.80;7.00;;;;;;;3.00;62.69;100200.56;110600;1254;23706;-75
2022/02/06 01:10:27;;;;;;;13.20;7.20;;;;;;;3.00;62.71;100201.98;110439;1254;21962;-76
2022/02/06 01:13:10;;;;;;;14.60;7.50;;;;;;;3.03;62.72;100201.73;110783;1254;22727;-76
2022/02/06 01:15:54;;;;;;;13.60;7.50;;;;;;;3.08;62.67;100195.09;110565;1254;23668;-76
2022/02/06 01:18:31;;;;;;;12.70;6.20;;;;;;;3.13;62.57;100188.46;110435;1253;23574;-76
2022/02/06 01:21:15;;;;;;;13.40;6.60;;;;;;;3.16;62.56;100189.38;110337;1257;22359;-77
2022/02/06 01:23:57;;;;;;;14.30;7.80;;;;;;;3.19;62.47;100178.17;110392;1254;22058;-76
2022/02/06 01:26:55;;;;;;;11.20;6.80;;;;;;;3.20;62.43;100177.25;110406;1253;23495;-76
2022/02/06 01:32:04;;;;;;;11.10;6.80;;;;;;;3.19;62.30;100172.05;110367;1256;23000;-76
2022/02/06 01:40:02;;;;;;;12.50;7.00;;;;;;;3.15;61.97;100155.88;110410;1256;22004;-76
2022/02/06 01:42:56;;;;;;;12.20;6.80;;;;;;;3.15;62.03;100153.80;110449;1256;22858;-75
2022/02/06 01:45:38;;;;;;;12.70;6.70;;;;;;;3.17;62.10;100149.48;110426;1251;21965;-75
2022/02/06 02:48:03;;;;;;;8.60;6.00;;;;;;;3.37;61.00;100027.60;110952;1250;23049;-76
2022/02/06 02:50:38;;;;;;;10.30;5.10;;;;;;;3.34;61.09;100022.91;111012;1251;21975;-77
2022/02/06 02:53:20;;;;;;;9.80;6.00;;;;;;;3.35;61.16;100016.98;110509;1254;24733;-76
2022/02/06 02:58:53;;;;;;;16.30;5.10;;;;;;;3.39;61.10;100007.33;110921;1251;24391;-79
2022/02/06 03:01:32;;;;;;;9.60;5.00;;;;;;;3.42;61.14;100003.06;110651;1253;22735;-79
2022/02/06 03:04:02;;;;;;;9.00;4.70;;;;;;;3.44;61.22;99999.09;110893;1251;24372;-79
2022/02/06 03:06:31;;;;;;;10.70;5.00;;;;;;;3.45;61.30;99996.39;110739;1250;23826;-75
2022/02/06 03:09:02;;;;;;;9.70;5.10;;;;;;;3.48;61.33;99986.95;110866;1251;21967;-76
2022/02/06 03:11:33;;;;;;;;;;;;;;;3.49;61.21;99981.95;110589;1251;21942;-75
2022/02/06 03:14:13;;;;;;;7.90;4.90;;;;;;;3.41;61.23;99980.17;110861;1251;23029;-75
2022/02/06 03:16:49;;;;;;;8.80;4.70;;;;;;;3.36;61.18;99975.38;110873;1251;21973;-76
2022/02/06 03:19:20;;;;;;;6.20;4.50;;;;;;;3.35;61.16;99971.71;110895;1251;23029;-75
2022/02/06 03:21:51;;;;;;;10.60;5.00;;;;;;;3.34;61.26;99966.40;110929;1250;22956;-75
2022/02/06 03:24:23;;;;;;;6.40;4.30;;;;;;;3.33;61.23;99957.25;110877;1251;23033;-76
2022/02/06 03:26:55;;;;;;;8.60;5.00;;;;;;;3.32;61.31;99952.27;110712;1251;23187;-75
2022/02/06 03:29:29;;;;;;;9.10;4.70;;;;;;;3.33;61.43;99943.87;110858;1250;21953;-76
2022/02/06 03:32:02;;;;;;;9.80;5.00;;;;;;;3.34;61.36;99944.48;110838;1251;22879;-74
2022/02/06 03:34:33;;;;;;;7.10;4.70;;;;;;;3.35;61.45;99942.09;110681;1251;21960;-75
2022/02/06 03:37:15;;;;;;;;;;;;;;;;;;;;;
2022/02/06 03:39:54;;;;;;;10.40;4.70;;;;;;;3.36;61.59;99931.88;110899;1251;22052;-75
2022/02/06 03:42:30;;;;;;;11.10;5.40;;;;;;;3.35;61.58;99928.87;110950;1251;23599;-76
2022/02/06 03:45:07;;;;;;;9.70;5.40;;;;;;;3.33;61.59;99917.68;110835;1251;23722;-75
2022/02/06 03:47:52;;;;;;;9.90;5.80;;;;;;;3.31;61.57;99916.98;110555;1251;22075;-76
2022/02/06 03:50:23;;;;;;;11.70;6.00;;;;;;;3.28;61.65;99911.45;110918;1251;21969;-76
2022/02/06 03:52:53;;;;;;;7.90;5.40;;;;;;;3.30;61.80;99907.19;110350;1257;23051;-75
2022/02/06 03:55:22;;;;;;;8.80;4.80;;;;;;;3.33;61.90;99906.08;110133;1257;23949;-75
2022/02/06 03:57:53;;;;;;;6.80;4.40;;;;;;;3.36;61.79;99906.15;109927;1259;23801;-76
2022/02/06 04:00:24;;;;;;;8.00;4.90;;;;;;;3.39;61.75;99895.81;109398;1264;22169;-75
2022/02/06 04:02:54;;;;;;;8.80;4.90;;;;;;;3.39;61.66;99889.47;109376;1263;21971;-75
2022/02/06 04:05:26;;;;;;;8.10;5.50;;;;;;;3.40;61.81;99884.86;109579;1264;23761;-75
2022/02/06 04:07:56;;;;;;;8.50;4.70;;;;;;;3.42;61.90;99878.44;107700;1266;2561514;-76
2022/02/06 04:10:35;;;;;;;7.70;5.40;;;;;;;3.42;61.83;99874.09;109369;1260;22117;-75
2022/02/06 04:13:05;;;;;;;6.10;4.20;;;;;;;3.40;61.83;99866.66;109615;1267;21985;-75
2022/02/06 04:15:40;;;;;;;7.80;4.60;;;;;;;3.40;61.88;99861.77;108976;1270;21997;-75
2022/02/06 04:18:15;;;;;;;7.20;4.10;;;;;;;3.36;61.80;99854.10;109345;1260;21966;-76
2022/02/06 04:20:47;;;;;;;9.80;5.50;;;;;;;3.34;61.88;99847.29;109891;1261;21979;-75
2022/02/06 04:23:19;;;;;;;7.60;4.90;;;;;;;3.35;61.93;99838.04;109872;1260;22081;-75
2022/02/06 04:25:48;;;;;;;;;;;;;;;3.35;61.98;99829.88;109869;1261;22748;-75
2022/02/06 04:28:34;;;;;;;18.50;10.90;;;;;;;3.29;62.04;99826.98;110070;1260;22431;-76
2022/02/06 04:31:04;;;;;;;9.10;5.30;;;;;;;3.30;62.25;99818.92;110038;1257;23869;-75
2022/02/06 04:33:42;;;;;;;10.40;5.60;;;;;;;3.32;62.32;99810.90;110449;1248;23011;-76
2022/02/06 04:36:13;;;;;;;7.70;4.90;;;;;;;3.34;62.44;99812.17;110679;1250;23656;-75
2022/02/06 04:39:15;;;;;;;8.50;4.80;;;;;;;3.32;62.36;99807.58;110878;1251;22820;-75
2022/02/06 05:25:38;;;;;;;9.00;6.10;;;;;;;2.69;66.89;99749.94;110947;1250;22745;-75
2022/02/06 05:28:29;;;;;;;8.50;7.40;;;;;;;2.63;67.32;99749.75;111084;1250;23745;-76
2022/02/06 05:31:11;;;;;;;12.60;7.00;;;;;;;2.59;67.75;99748.48;110949;1250;22758;-75
2022/02/06 05:33:46;;;;;;;14.30;7.50;;;;;;;2.61;68.10;99743.66;110925;1251;21967;-75
2022/02/06 05:36:19;;;;;;;12.90;7.40;;;;;;;2.61;68.28;99739.35;110875;1249;23020;-75
2022/02/06 05:38:49;;;;;;;11.20;7.30;;;;;;;2.61;68.56;99736.94;110992;1250;22063;-76
2022/02/06 05:41:24;;;;;;;9.00;7.30;;;;;;;2.65;68.87;99731.33;111008;1251;22055;-76
2022/02/06 05:43:54;;;;;;;10.10;7.50;;;;;;;2.66;68.95;99724.63;111098;1248;22731;-75
2022/02/06 05:46:34;;;;;;;8.90;6.60;;;;;;;2.63;69.06;99717.92;110957;1250;21963;-77
2022/02/06 05:49:05;;;;;;;7.20;6.00;;;;;;;2.63;69.35;99713.05;111009;1249;23206;-76
2022/02/06 05:51:39;;;;;;;11.90;7.30;;;;;;;2.64;69.48;99707.13;110303;1257;22865;-76
2022/02/06 05:54:11;;;;;;;9.70;7.80;;;;;;;2.63;69.76;99703.30;110439;1256;23693;-76
2022/02/06 05:56:41;;;;;;;10.00;7.10;;;;;;;2.64;69.93;99709.34;110323;1254;22009;-76
2022/02/06 05:59:12;;;;;;;10.20;6.80;;;;;;;2.64;70.23;99704.85;110403;1254;21959;-75
2022/02/06 06:01:50;;;;;;;11.80;7.80;;;;;;;2.64;70.43;99701.34;110453;1254;21970;-76
2022/02/06 06:04:24;;;;;;;11.70;6.50;;;;;;;2.64;70.67;99697.14;110424;1257;21968;-77
2022/02/06 06:07:06;;;;;;;9.10;5.80;;;;;;;2.66;70.79;99696.81;110322;1254;23787;-76
2022/02/06 06:09:36;;;;;;;8.60;5.40;;;;;;;2.68;70.94;99692.35;110616;1250;21954;-76
2022/02/06 06:12:12;;;;;;;6.90;4.70;;;;;;;2.72;71.11;99693.88;110975;1250;21957;-75
2022/02/06 06:14:46;;;;;;;7.70;4.80;;;;;;;2.74;71.32;99693.71;110972;1248;23698;-77
2022/02/06 06:17:19;;;;;;;6.10;4.20;;;;;;;2.75;71.44;99686.14;110973;1248;21958;-77
2022/02/06 06:19:49;;;;;;;9.00;5.10;;;;;;;2.75;71.47;99684.36;111090;1247;24287;-76
2022/02/06 06:22:21;;;;;;;9.40;4.40;;;;;;;2.75;71.66;99682.63;110934;1250;21956;-77
2022/02/06 06:25:01;;;;;;;5.10;3.60;;;;;;;2.76;71.78;99678.20;110851;1250;23677;-76
2022/02/06 06:27:41;;;;;;;7.50;4.20;;;;;;;2.78;71.88;99680.64;110905;1250;24271;-76
2022/02/06 06:30:11;;;;;;;8.40;5.30;;;;;;;2.77;72.00;99673.59;110467;1254;23610;-76
2022/02/06 06:32:47;;;;;;;6.80;3.80;;;;;;;2.77;72.07;99669.59;110244;1254;22083;-77
2022/02/06 06:35:55;;;;;;;7.20;4.80;;;;;;;2.77;72.27;99665.05;110416;1253;21965;-77
2022/02/06 06:41:18;;;;;;;7.30;4.80;;;;;;;2.84;72.55;99668.31;110374;1253;22045;-76
2022/02/06 06:43:47;;;;;;;7.30;4.30;;;;;;;2.85;72.44;99665.48;110211;1257;23602;-77
2022/02/06 06:46:25;;;;;;;6.90;4.50;;;;;;;2.85;72.48;99661.83;110399;1254;23706;-76
2022/02/06 06:49:01;;;;;;;7.70;4.60;;;;;;;2.87;72.71;99657.98;110765;1250;23029;-76
2022/02/06 06:51:34;;;;;;;6.70;4.30;;;;;;;2.93;72.82;99659.73;110879;1250;21969;-75
2022/02/06 06:54:16;;;;;;;6.70;4.70;;;;;;;2.96;72.75;99652.61;110922;1250;23706;-75
2022/02/06 06:57:03;;;;;;;7.50;4.50;;;;;;;2.97;72.74;99650.09;110510;1251;23717;-76
2022/02/06 07:04:57;;;;;;;5.30;4.20;;;;;;;3.09;73.07;99654.13;110225;1257;21963;-77
2022/02/06 07:07:28;;;;;;;6.80;4.90;;;;;;;3.13;73.04;99647.85;110413;1254;21926;-77
2022/02/06 07:10:09;;;;;;;9.00;5.60;;;;;;;3.15;72.95;99647.48;110124;1260;22836;-76
2022/02/06 07:12:40;;;;;;;8.80;6.10;;;;;;;3.19;73.06;99643.75;110125;1259;21987;-76
2022/02/06 07:15:09;;;;;;;7.40;5.20;;;;;;;3.23;72.91;99641.55;110148;1259;22038;-76
2022/02/06 07:17:44;;;;;;;6.80;4.60;;;;;;;3.24;72.95;99637.76;110224;1260;21992;-76
2022/02/06 07:20:14;;;;;;;6.80;4.70;;;;;;;3.26;73.01;99639.10;110302;1259;22043;-80
2022/02/06 07:22:45;;;;;;;9.90;5.50;;;;;;;3.31;73.20;99634.90;109690;1256;23584;-77
2022/02/06 07:25:14;;;;;;;11.20;7.30;;;;;;;3.30;72.90;99626.77;110166;1256;22672;-76
2022/02/06 07:27:48;;;;;;;15.80;13.70;;;;;;;3.31;73.04;99618.38;110358;1251;21973;-78
2022/02/06 07:30:20;;;;;;;10.60;8.20;;;;;;;3.32;73.13;99613.00;110694;1250;22755;-76
2022/02/06 07:32:52;;;;;;;7.30;5.70;;;;;;;3.32;73.08;99609.02;110811;1250;23011;-77
2022/02/06 07:35:29;;;;;;;8.80;5.90;;;;;;;3.32;73.17;99603.16;110886;1250;22739;-76
2022/02/06 07:38:01;;;;;;;8.80;7.20;;;;;;;3.32;73.26;99608.84;110816;1251;23722;-77
2022/02/06 07:40:31;;;;;;;;;;;;;;;3.37;73.38;99607.61;110365;1254;23750;-77
2022/02/06 07:43:00;;;;;;;8.40;6.60;;;;;;;3.30;73.38;99602.39;110120;1255;21980;-76
2022/02/06 07:45:40;;;;;;;10.30;8.00;;;;;;;3.26;73.38;99597.16;110310;1256;21929;-77
2022/02/06 07:48:12;;;;;;;8.90;6.90;;;;;;;3.26;73.45;99598.38;110485;1254;22085;-76
2022/02/06 07:50:41;;;;;;;10.60;8.30;;;;;;;3.30;73.58;99605.16;110255;1254;21954;-77
2022/02/06 07:53:10;;;;;;;7.90;6.60;;;;;;;3.34;73.53;99593.23;110310;1256;24272;-77
2022/02/06 07:55:42;;;;;;;8.10;6.70;;;;;;;3.33;73.41;99590.91;110418;1256;21975;-77
2022/02/06 07:58:16;;;;;;;15.50;13.20;;;;;;;3.31;73.41;99589.45;110621;1247;22164;-77
2022/02/06 08:00:46;;;;;;;20.00;14.80;;;;;;;3.31;73.60;99588.63;110383;1254;22755;-77
2022/02/06 08:03:15;;;;;;;14.20;11.60;;;;;;;3.33;73.74;99575.92;110416;1254;22112;-78
2022/02/06 08:05:45;;;;;;;13.30;9.40;;;;;;;3.36;73.85;99583.45;110459;1254;22045;-76
2022/02/06 08:08:51;;;;;;;12.60;10.10;;;;;;;3.36;73.82;99569.70;110423;1254;21968;-76
2022/02/06 08:11:21;;;;;;;13.00;9.60;;;;;;;3.31;73.87;99565.45;110443;1254;23052;-77
2022/02/06 08:13:56;;;;;;;11.70;8.80;;;;;;;3.25;74.04;99560.71;109959;1257;21994;-78
2022/02/06 08:16:34;;;;;;;12.70;8.60;;;;;;;3.25;74.21;99551.36;110016;1259;21978;-77
2022/02/06 08:19:03;;;;;;;14.00;10.20;;;;;;;3.28;74.44;99547.05;110318;1254;21962;-76
2022/02/06 08:21:42;;;;;;;12.00;10.40;;;;;;;3.36;74.82;99539.92;110610;1253;21969;-76
2022/02/06 08:24:13;;;;;;;18.50;13.00;;;;;;;3.45;74.98;99537.39;110440;1253;21956;-75
2022/02/06 08:26:45;;;;;;;21.60;14.80;;;;;;;3.55;75.14;99529.44;110406;1253;22041;-75
2022/02/06 08:29:22;;;;;;;22.30;13.40;;;;;;;3.61;74.89;99526.65;109973;1261;23599;-76
2022/02/06 08:31:53;;;;;;;32.50;23.70;;;;;;;3.63;74.81;99525.73;109942;1257;21996;-75
2022/02/06 08:34:31;;;;;;;36.30;26.40;;;;;;;3.69;74.95;99527.23;110379;1254;21985;-76
2022/02/06 08:37:05;;;;;;;23.90;17.90;;;;;;;3.74;74.95;99525.23;109941;1260;21977;-76
2022/02/06 08:39:49;;;;;;;17.20;12.50;;;;;;;3.78;74.80;99520.66;109805;1260;22036;-76
2022/02/06 08:42:18;;;;;;;18.80;14.10;;;;;;;3.84;74.88;99517.34;109658;1260;22160;-75
2022/02/06 08:44:55;;;;;;;15.40;12.10;;;;;;;3.87;74.78;99504.55;109778;1260;22000;-77
2022/02/06 08:47:24;;;;;;;8.80;7.90;;;;;;;3.91;74.97;99509.58;110094;1256;23716;-78
2022/02/06 08:49:57;;;;;;;12.20;7.10;;;;;;;3.93;75.00;99502.73;110587;1256;22042;-80
2022/02/06 08:52:33;;;;;;;10.90;7.90;;;;;;;3.99;75.22;99501.75;109921;1260;21977;-79
2022/02/06 08:55:11;;;;;;;8.70;7.60;;;;;;;4.10;75.29;99496.38;109805;1259;23645;-80
2022/02/06 08:57:47;;;;;;;7.40;6.50;;;;;;;4.21;75.20;99490.58;110054;1258;21988;-79
2022/02/06 09:00:23;;;;;;;7.30;6.60;;;;;;;4.37;75.44;99486.83;110252;1260;22436;-82
2022/02/06 09:02:58;;;;;;;12.10;10.50;;;;;;;4.50;75.19;99480.02;110101;1260;22180;-81
2022/02/06 09:05:29;;;;;;;9.50;7.80;;;;;;;4.57;74.77;99477.01;110194;1260;24179;-82
2022/02/06 09:08:05;;;;;;;25.00;18.10;;;;;;;4.63;74.69;99471.91;110102;1260;21970;-82
2022/02/06 09:10:54;;;;;;;19.80;15.60;;;;;;;4.66;74.44;99473.46;110522;1253;22967;-81
2022/02/06 09:13:24;;;;;;;13.90;11.00;;;;;;;4.68;74.19;99475.17;110664;1256;22776;-83
2022/02/06 09:16:00;;;;;;;11.10;9.00;;;;;;;4.66;73.95;99462.34;110349;1253;21976;-81
2022/02/06 09:18:32;;;;;;;13.00;8.20;;;;;;;4.63;73.87;99458.63;110672;1250;21950;-82
2022/02/06 09:21:09;;;;;;;10.50;8.30;;;;;;;4.68;74.24;99457.30;110698;1250;21968;-82
2022/02/06 09:23:41;;;;;;;11.20;7.70;;;;;;;4.75;74.14;99451.23;110746;1250;23702;-81
2022/02/06 09:26:10;;;;;;;10.30;7.70;;;;;;;4.76;74.12;99453.83;110746;1250;22024;-82
2022/02/06 09:28:43;;;;;;;10.70;8.20;;;;;;;4.81;74.18;99451.66;110621;1251;22752;-82
2022/02/06 09:31:22;;;;;;;8.00;6.30;;;;;;;4.82;74.03;99450.13;110784;1250;21969;-82
2022/02/06 09:36:25;;;;;;;15.40;11.50;;;;;;;4.90;74.16;99448.15;110835;1250;21958;-81
2022/02/06 09:38:57;;;;;;;9.40;7.80;;;;;;;4.97;74.36;99443.89;110755;1249;23752;-82
2022/02/06 09:41:32;;;;;;;8.50;7.50;;;;;;;5.06;74.22;99441.81;110875;1251;21923;-82
2022/02/06 09:44:08;;;;;;;7.70;6.10;;;;;;;5.07;73.85;99442.35;110618;1251;23603;-80
2022/02/06 09:46:54;;;;;;;11.70;10.40;;;;;;;5.07;73.79;99441.52;110405;1254;23674;-82
2022/02/06 09:49:30;;;;;;;19.20;16.00;;;;;;;5.06;73.64;99438.25;110546;1254;23036;-81
2022/02/06 09:52:02;;;;;;;15.80;13.50;;;;;;;5.03;73.55;99435.27;110566;1254;22060;-79
2022/02/06 09:54:31;;;;;;;11.30;8.80;;;;;;;5.03;73.59;99424.66;110353;1254;22039;-81
2022/02/06 09:57:11;;;;;;;22.30;19.90;;;;;;;5.04;73.79;99421.00;110269;1254;22001;-80
2022/02/06 09:59:42;;;;;;;14.70;13.20;;;;;;;5.06;73.72;99414.93;110365;1254;22991;-81
2022/02/06 10:02:18;;;;;;;18.90;16.80;;;;;;;5.06;73.63;99411.27;110425;1255;22966;-83
2022/02/06 10:04:53;;;;;;;17.10;14.90;;;;;;;5.08;73.70;99406.11;109770;1256;21972;-80
2022/02/06 10:07:52;;;;;;;12.60;8.90;;;;;;;5.17;74.08;99401.37;110250;1257;21996;-80
2022/02/06 10:10:28;;;;;;;11.50;9.00;;;;;;;5.21;73.82;99402.59;110376;1256;22331;-80
2022/02/06 10:13:09;;;;;;;15.20;10.20;;;;;;;5.21;73.71;99398.38;110071;1257;21977;-80
2022/02/06 10:15:38;;;;;;;10.90;9.60;;;;;;;5.28;74.05;99389.08;110425;1256;23608;-80
2022/02/06 10:18:14;;;;;;;16.30;12.20;;;;;;;5.39;74.18;99380.52;110094;1257;21972;-80
2022/02/06 10:20:47;;;;;;;11.50;10.30;;;;;;;5.46;73.90;99378.94;110318;1256;22740;-79
2022/02/06 10:32:03;;;;;;;15.60;14.00;;;;;;;5.56;73.58;99357.20;110201;1256;22041;-80
2022/02/06 10:34:36;;;;;;;18.80;15.70;;;;;;;5.60;73.55;99354.88;110147;1256;21970;-80
2022/02/06 10:37:23;;;;;;;20.00;17.90;;;;;;;5.61;73.34;99353.36;110526;1256;22088;-81
2022/02/06 10:40:07;;;;;;;20.10;16.00;;;;;;;5.59;73.17;99349.92;110436;1256;23029;-82
2022/02/06 10:42:42;;;;;;;15.50;13.90;;;;;;;5.60;73.30;99351.33;109622;1260;21983;-81
2022/02/06 10:45:25;;;;;;;27.00;22.50;;;;;;;5.63;73.30;99338.11;109455;1261;23000;-80
2022/02/06 10:47:56;;;;;;;22.80;18.30;;;;;;;5.73;73.76;99329.29;109184;1267;22035;-81
2022/02/06 10:50:30;;;;;;;18.70;16.30;;;;;;;5.79;73.48;99327.77;109033;1265;22985;-81
2022/02/06 10:53:12;;;;;;;19.00;14.30;;;;;;;5.88;73.75;99328.71;109224;1265;24388;-80
2022/02/06 10:56:01;;;;;;;18.10;14.70;;;;;;;6.00;73.77;99319.40;109244;1265;22279;-80
2022/02/06 10:58:38;;;;;;;12.70;11.20;;;;;;;6.13;73.54;99311.75;109167;1265;23816;-76
2022/02/06 11:01:21;;;;;;;16.70;14.90;;;;;;;6.13;72.88;99305.78;109398;1263;23628;-76
2022/02/06 11:04:18;;;;;;;15.50;12.80;;;;;;;6.11;72.65;99307.95;109407;1262;21983;-76
2022/02/06 11:07:07;;;;;;;11.60;9.30;;;;;;;6.08;72.53;99305.58;110305;1256;22039;-74
2022/02/06 11:09:36;;;;;;;10.60;9.40;;;;;;;6.04;72.36;99300.66;109999;1257;23054;-76
2022/02/06 11:12:15;;;;;;;17.60;13.40;;;;;;;5.97;72.25;99298.55;109883;1257;21982;-77
2022/02/06 11:14:48;;;;;;;12.00;10.70;;;;;;;5.91;72.20;99290.25;110224;1257;22089;-76
2022/02/06 11:17:19;;;;;;;9.80;7.70;;;;;;;5.82;72.15;99283.56;110190;1257;22007;-76
2022/02/06 11:20:15;;;;;;;19.80;12.30;;;;;;;5.72;72.18;99280.96;109677;1263;21990;-76
2022/02/06 11:22:57;;;;;;;16.50;12.00;;;;;;;5.60;72.28;99274.05;109691;1261;23736;-74
2022/02/06 11:25:28;;;;;;;;;;;;;;;5.56;72.74;99274.44;109499;1262;22163;-76
2022/02/06 11:28:00;;;;;;;16.70;13.10;;;;;;;5.51;73.13;99274.13;109956;1258;24156;-76
2022/02/06 11:30:29;;;;;;;12.40;11.10;;;;;;;5.44;72.96;99264.85;110080;1259;21984;-76
2022/02/06 11:33:03;;;;;;;14.00;11.90;;;;;;;5.41;73.06;99255.52;110136;1258;23750;-75
2022/02/06 11:35:35;;;;;;;11.30;9.50;;;;;;;5.41;73.25;99254.84;110083;1257;21990;-76
2022/02/06 11:44:23;;;;;;;20.30;15.90;;;;;;;5.28;73.47;99244.41;110827;1250;21968;-76
2022/02/06 11:47:11;;;;;;;14.10;12.00;;;;;;;5.28;73.61;99231.64;110086;1257;24281;-75
2022/02/06 11:49:50;;;;;;;13.10;9.20;;;;;;;5.30;73.68;99227.58;110065;1257;23701;-74
2022/02/06 11:52:40;;;;;;;13.30;9.20;;;;;;;5.29;73.59;99226.33;110069;1257;23706;-75
2022/02/06 11:55:45;;;;;;;9.90;8.80;;;;;;;5.30;73.79;99219.56;110099;1257;23582;-76
2022/02/06 11:58:30;;;;;;;11.00;8.80;;;;;;;5.31;73.83;99214.27;110107;1257;23823;-75
2022/02/06 12:01:06;;;;;;;12.90;11.10;;;;;;;5.32;73.92;99202.58;109563;1263;23042;-76
2022/02/06 12:04:24;;;;;;;15.20;11.80;;;;;;;5.35;73.96;99190.75;109628;1262;21968;-76
2022/02/06 12:06:57;;;;;;;22.40;17.90;;;;;;;5.38;74.02;99187.78;108707;1270;23029;-76
2022/02/06 12:09:31;;;;;;;14.70;12.70;;;;;;;5.41;73.93;99186.24;108457;1271;22008;-76
2022/02/06 12:12:14;;;;;;;10.60;9.50;;;;;;;5.41;73.85;99180.55;108352;1276;22002;-76
2022/02/06 12:14:53;;;;;;;12.60;10.90;;;;;;;5.44;74.03;99174.66;108347;1276;22005;-75
2022/02/06 12:20:16;;;;;;;17.00;13.70;;;;;;;5.47;73.95;99175.47;108520;1273;23739;-76
2022/02/06 12:22:49;;;;;;;15.90;12.70;;;;;;;5.49;73.96;99174.72;108428;1268;23796;-76
2022/02/06 12:25:36;;;;;;;23.40;21.00;;;;;;;5.50;73.94;99170.63;109132;1264;23097;-75
2022/02/06 12:28:13;;;;;;;15.10;12.00;;;;;;;5.53;73.87;99171.05;109508;1263;22330;-76
2022/02/06 12:30:45;;;;;;;20.60;15.40;;;;;;;5.55;73.89;99178.55;109868;1257;24301;-74
2022/02/06 12:33:32;;;;;;;15.70;13.50;;;;;;;5.56;73.86;99173.65;109962;1257;21970;-75
2022/02/06 12:38:49;;;;;;;12.30;10.60;;;;;;;5.57;73.67;99158.15;109867;1257;21972;-74
2022/02/06 12:41:29;;;;;;;11.50;10.00;;;;;;;5.57;73.63;99148.62;109896;1257;23144;-75
2022/02/06 12:44:06;;;;;;;18.70;16.80;;;;;;;5.58;73.69;99137.58;109869;1250;21979;-75
2022/02/06 12:46:39;;;;;;;14.20;12.30;;;;;;;5.61;73.64;99131.96;110869;1250;23809;-76
2022/02/06 12:49:09;;;;;;;12.40;9.00;;;;;;;5.65;73.65;99119.77;110667;1251;21967;-75
2022/02/06 12:51:43;;;;;;;12.10;10.00;;;;;;;5.65;73.43;99115.56;110747;1250;23025;-76
2022/02/06 12:54:14;;;;;;;17.60;9.70;;;;;;;5.62;73.36;99113.84;110441;1250;21956;-76
2022/02/06 12:56:44;;;;;;;15.30;9.50;;;;;;;5.62;73.47;99104.09;110621;1250;24703;-76
2022/02/06 12:59:20;;;;;;;15.60;10.40;;;;;;;5.62;73.47;99093.70;110493;1253;21983;-76
2022/02/06 13:01:53;;;;;;;17.50;14.30;;;;;;;5.65;73.52;99092.02;110672;1250;23705;-74
2022/02/06 13:04:28;;;;;;;19.70;17.40;;;;;;;5.68;73.43;99086.48;110680;1253;21968;-75
2022/02/06 13:07:06;;;;;;;22.50;15.50;;;;;;;5.74;73.56;99082.54;110722;1250;21961;-76
2022/02/06 13:09:42;;;;;;;23.20;17.30;;;;;;;5.76;73.27;99077.00;110753;1251;22726;-75
2022/02/06 13:31:18;;;;;;;19.40;13.90;;;;;;;5.97;72.69;99057.80;110798;1250;23072;-75
2022/02/06 13:38:58;;;;;;;18.90;13.50;;;;;;;6.06;72.27;99052.39;110205;1256;23026;-75
2022/02/06 13:41:33;;;;;;;12.70;8.50;;;;;;;6.06;72.00;99043.61;110452;1256;21981;-75
2022/02/06 13:44:13;;;;;;;;;;;;;;;6.08;71.97;99046.95;110338;1256;22007;-76
2022/02/06 13:46:49;;;;;;;20.60;14.00;;;;;;;6.03;72.04;99038.91;109360;1264;21976;-76
2022/02/06 13:50:00;;;;;;;12.80;10.40;;;;;;;6.04;72.09;99034.08;109613;1263;23127;-75
2022/02/06 13:53:59;;;;;;;12.30;9.10;;;;;;;6.05;71.95;99031.36;109201;1266;23040;-76
2022/02/06 13:57:40;;;;;;;13.50;9.90;;;;;;;6.01;71.93;99019.81;108578;1275;23106;-76
2022/02/06 14:00:39;;;;;;;17.80;14.00;;;;;;;6.02;71.96;99006.30;108604;1274;22463;-75
2022/02/06 14:04:11;;;;;;;;;;;;;;;;;;;;;
2022/02/06 14:07:13;;;;;;;17.40;13.10;;;;;;;6.06;71.89;98993.63;108689;1271;23774;-77
2022/02/06 14:10:30;;;;;;;19.10;14.70;;;;;;;6.12;71.87;98985.99;108704;1273;21989;-76
2022/02/06 14:13:29;;;;;;;16.80;13.30;;;;;;;6.12;71.61;98981.08;109088;1267;23459;-75
2022/02/06 14:17:08;;;;;;;15.80;11.60;;;;;;;6.09;71.40;98973.77;108988;1267;22041;-75
2022/02/06 14:19:45;;;;;;;14.50;11.70;;;;;;;6.08;71.36;98967.27;108689;1273;22022;-76
2022/02/06 14:22:48;;;;;;;15.60;10.30;;;;;;;6.09;71.29;98960.35;108595;1270;22069;-76
2022/02/06 14:26:05;;;;;;;12.60;8.30;;;;;;;6.09;71.09;98950.69;108441;1273;21997;-76
2022/02/06 14:29:21;;;;;;;15.80;11.30;;;;;;;6.07;71.00;98940.47;108328;1279;23638;-75
2022/02/06 14:32:20;;;;;;;17.10;13.20;;;;;;;6.10;70.96;98934.52;108319;1279;21983;-75
2022/02/06 14:36:03;;;;;;;25.80;16.30;;;;;;;6.13;70.68;98920.83;108861;1268;21959;-75
2022/02/06 14:39:22;;;;;;;;;;;;;;;;;;;;;
2022/02/06 14:43:15;;;;;;;16.10;10.90;;;;;;;6.05;70.37;98904.46;108934;1270;21998;-76
2022/02/06 14:46:31;;;;;;;20.80;14.80;;;;;;;6.03;70.27;98899.86;108511;1270;22485;-76
2022/02/06 14:53:40;;;;;;;17.90;10.90;;;;;;;6.03;70.06;98884.06;109008;1267;22012;-76
2022/02/06 14:57:00;;;;;;;;;;;;;;;;;;;;;
2022/02/06 15:00:18;;;;;;;22.00;14.40;;;;;;;6.07;69.91;98874.30;108659;1273;23128;-75
2022/02/06 15:03:03;;;;;;;;;;;;;;;6.08;69.87;98869.11;108425;1276;22850;-76
2022/02/06 15:06:03;;;;;;;20.80;10.80;;;;;;;6.03;69.86;98865.52;108387;1276;22064;-76
2022/02/06 15:08:50;;;;;;;16.40;12.00;;;;;;;6.04;69.85;98853.91;108474;1276;23618;-76
2022/02/06 15:11:23;;;;;;;17.00;11.60;;;;;;;6.08;69.77;98842.05;108375;1276;23108;-76
2022/02/06 15:14:11;;;;;;;14.70;11.00;;;;;;;6.09;69.57;98837.66;108294;1279;22028;-75
2022/02/06 15:17:21;;;;;;;14.70;10.30;;;;;;;6.21;69.39;98836.45;107282;1289;544249;-75
2022/02/06 15:20:07;;;;;;;14.00;10.30;;;;;;;6.20;69.07;98831.42;109674;1261;23622;-75
2022/02/06 15:23:06;;;;;;;;;;;;;;;;;;;;;
2022/02/06 15:26:55;;;;;;;13.10;10.30;;;;;;;6.14;68.58;98818.14;110030;1260;23017;-74
2022/02/06 15:29:46;;;;;;;16.00;9.90;;;;;;;6.11;68.67;98810.64;109720;1260;21992;-76